sensor_id;sensor_type;location;lat;lon;timestamp;P1;durP1;ratioP1;P2;durP2;ratioP2
45368;SDS011;51342;55.250;37.668;2023-02-15T00:02:25;4.33;;;0.80;;
45368;SDS011;51342;55.250;37.668;2023-02-15T00:04:57;2.27;;;0.87;;
45368;SDS011;51342;55.250;37.668;2023-02-15T00:07:28;3.30;;;1.20;;
45368;SDS011;51342;55.250;37.668;2023-02-15T00:10:00;2.90;;;0.80;;
45368;SDS011;51342;55.250;37.668;2023-02-15T00:12:31;1.80;;;0.90;;
45368;SDS011;51342;55.250;37.668;2023-02-15T00:15:03;3.43;;;1.87;;
45368;SDS011;51342;55.250;37.668;2023-02-15T00:17:34;6.47;;;1.10;;
45368;SDS011;51342;55.250;37.668;2023-02-15T00:20:06;2.33;;;0.97;;
45368;SDS011;51342;55.250;37.668;2023-02-15T00:22:38;3.57;;;1.30;;
45368;SDS011;51342;55.250;37.668;2023-02-15T00:25:09;3.23;;;0.90;;
45368;SDS011;51342;55.250;37.668;2023-02-15T00:27:41;3.03;;;0.97;;
45368;SDS011;51342;55.250;37.668;2023-02-15T00:30:12;4.37;;;1.00;;
45368;SDS011;51342;55.250;37.668;2023-02-15T00:32:44;5.50;;;1.00;;
45368;SDS011;51342;55.250;37.668;2023-02-15T00:35:17;3.90;;;1.20;;
45368;SDS011;51342;55.250;37.668;2023-02-15T00:37:49;4.03;;;1.00;;
45368;SDS011;51342;55.250;37.668;2023-02-15T00:40:20;4.53;;;1.17;;
45368;SDS011;51342;55.250;37.668;2023-02-15T00:42:52;2.20;;;0.90;;
45368;SDS011;51342;55.250;37.668;2023-02-15T00:45:29;4.07;;;0.70;;
45368;SDS011;51342;55.250;37.668;2023-02-15T00:48:00;3.37;;;1.00;;
45368;SDS011;51342;55.250;37.668;2023-02-15T00:50:32;3.83;;;0.80;;
45368;SDS011;51342;55.250;37.668;2023-02-15T00:53:03;4.23;;;2.30;;
45368;SDS011;51342;55.250;37.668;2023-02-15T00:55:34;1.83;;;0.90;;
45368;SDS011;51342;55.250;37.668;2023-02-15T00:58:06;3.03;;;1.40;;
45368;SDS011;51342;55.250;37.668;2023-02-15T01:00:39;1.33;;;0.73;;
45368;SDS011;51342;55.250;37.668;2023-02-15T01:03:14;2.80;;;0.90;;
45368;SDS011;51342;55.250;37.668;2023-02-15T01:05:47;3.03;;;0.80;;
45368;SDS011;51342;55.250;37.668;2023-02-15T01:08:19;5.07;;;1.20;;
45368;SDS011;51342;55.250;37.668;2023-02-15T01:10:50;3.83;;;1.20;;
45368;SDS011;51342;55.250;37.668;2023-02-15T01:13:22;2.40;;;0.90;;
45368;SDS011;51342;55.250;37.668;2023-02-15T01:15:54;3.07;;;0.87;;
45368;SDS011;51342;55.250;37.668;2023-02-15T01:18:26;2.23;;;0.90;;
45368;SDS011;51342;55.250;37.668;2023-02-15T01:20:58;2.97;;;0.90;;
45368;SDS011;51342;55.250;37.668;2023-02-15T01:23:29;3.30;;;1.03;;
45368;SDS011;51342;55.250;37.668;2023-02-15T01:26:01;4.30;;;1.07;;
45368;SDS011;51342;55.250;37.668;2023-02-15T01:28:33;4.43;;;1.00;;
45368;SDS011;51342;55.250;37.668;2023-02-15T01:31:06;3.63;;;1.07;;
45368;SDS011;51342;55.250;37.668;2023-02-15T01:33:42;3.00;;;0.93;;
45368;SDS011;51342;55.250;37.668;2023-02-15T01:36:14;2.20;;;0.90;;
45368;SDS011;51342;55.250;37.668;2023-02-15T01:38:48;2.97;;;0.97;;
45368;SDS011;51342;55.250;37.668;2023-02-15T01:41:20;1.47;;;0.80;;
45368;SDS011;51342;55.250;37.668;2023-02-15T01:43:54;3.30;;;0.97;;
45368;SDS011;51342;55.250;37.668;2023-02-15T01:49:10;2.93;;;0.83;;
45368;SDS011;51342;55.250;37.668;2023-02-15T01:51:46;1.00;;;0.60;;
45368;SDS011;51342;55.250;37.668;2023-02-15T01:54:23;3.20;;;1.13;;
45368;SDS011;51342;55.250;37.668;2023-02-15T01:57:00;3.40;;;1.00;;
45368;SDS011;51342;55.250;37.668;2023-02-15T01:59:36;2.87;;;0.63;;
45368;SDS011;51342;55.250;37.668;2023-02-15T02:02:11;2.40;;;0.70;;
45368;SDS011;51342;55.250;37.668;2023-02-15T02:04:49;1.77;;;0.97;;
45368;SDS011;51342;55.250;37.668;2023-02-15T02:09:57;2.43;;;0.90;;
45368;SDS011;51342;55.250;37.668;2023-02-15T02:12:28;5.93;;;1.27;;
45368;SDS011;51342;55.250;37.668;2023-02-15T02:15:00;4.33;;;1.07;;
45368;SDS011;51342;55.250;37.668;2023-02-15T02:34:29;3.40;;;1.30;;
45368;SDS011;51342;55.250;37.668;2023-02-15T02:37:24;5.87;;;1.30;;
45368;SDS011;51342;55.250;37.668;2023-02-15T02:42:43;4.40;;;1.10;;
45368;SDS011;51342;55.250;37.668;2023-02-15T02:45:32;6.70;;;1.67;;
45368;SDS011;51342;55.250;37.668;2023-02-15T02:48:14;2.17;;;0.93;;
45368;SDS011;51342;55.250;37.668;2023-02-15T02:50:53;3.83;;;1.13;;
45368;SDS011;51342;55.250;37.668;2023-02-15T02:53:25;4.77;;;1.33;;
45368;SDS011;51342;55.250;37.668;2023-02-15T02:56:00;3.90;;;0.90;;
45368;SDS011;51342;55.250;37.668;2023-02-15T02:59:16;3.90;;;1.03;;
45368;SDS011;51342;55.250;37.668;2023-02-15T03:05:00;3.43;;;1.00;;
45368;SDS011;51342;55.250;37.668;2023-02-15T03:07:34;4.10;;;0.97;;
45368;SDS011;51342;55.250;37.668;2023-02-15T03:10:08;1.83;;;0.60;;
45368;SDS011;51342;55.250;37.668;2023-02-15T03:12:41;3.50;;;1.33;;
45368;SDS011;51342;55.250;37.668;2023-02-15T03:15:18;4.17;;;1.23;;
45368;SDS011;51342;55.250;37.668;2023-02-15T03:17:57;2.33;;;1.00;;
45368;SDS011;51342;55.250;37.668;2023-02-15T03:20:33;2.47;;;1.00;;
45368;SDS011;51342;55.250;37.668;2023-02-15T03:23:16;3.67;;;0.80;;
45368;SDS011;51342;55.250;37.668;2023-02-15T03:25:57;3.73;;;1.10;;
45368;SDS011;51342;55.250;37.668;2023-02-15T03:28:46;4.13;;;1.00;;
45368;SDS011;51342;55.250;37.668;2023-02-15T03:31:23;3.97;;;1.43;;
45368;SDS011;51342;55.250;37.668;2023-02-15T03:33:58;2.63;;;0.70;;
45368;SDS011;51342;55.250;37.668;2023-02-15T03:36:43;3.80;;;1.00;;
45368;SDS011;51342;55.250;37.668;2023-02-15T03:42:30;5.47;;;1.00;;
45368;SDS011;51342;55.250;37.668;2023-02-15T03:45:11;4.37;;;1.10;;
45368;SDS011;51342;55.250;37.668;2023-02-15T03:47:50;5.83;;;1.10;;
45368;SDS011;51342;55.250;37.668;2023-02-15T03:50:30;3.13;;;0.90;;
45368;SDS011;51342;55.250;37.668;2023-02-15T03:53:22;2.43;;;1.00;;
45368;SDS011;51342;55.250;37.668;2023-02-15T03:55:56;3.40;;;0.93;;
45368;SDS011;51342;55.250;37.668;2023-02-15T03:58:27;4.70;;;1.00;;
45368;SDS011;51342;55.250;37.668;2023-02-15T04:01:24;4.53;;;1.10;;
45368;SDS011;51342;55.250;37.668;2023-02-15T04:04:23;6.53;;;1.43;;
45368;SDS011;51342;55.250;37.668;2023-02-15T04:06:58;3.60;;;1.10;;
45368;SDS011;51342;55.250;37.668;2023-02-15T04:09:30;4.73;;;1.47;;
45368;SDS011;51342;55.250;37.668;2023-02-15T04:12:20;4.77;;;1.37;;
45368;SDS011;51342;55.250;37.668;2023-02-15T04:14:54;2.57;;;1.40;;
45368;SDS011;51342;55.250;37.668;2023-02-15T04:17:43;5.37;;;1.43;;
45368;SDS011;51342;55.250;37.668;2023-02-15T04:20:15;6.70;;;1.43;;
45368;SDS011;51342;55.250;37.668;2023-02-15T04:23:08;5.90;;;1.53;;
45368;SDS011;51342;55.250;37.668;2023-02-15T04:25:57;3.00;;;0.77;;
45368;SDS011;51342;55.250;37.668;2023-02-15T04:28:29;5.17;;;1.50;;
45368;SDS011;51342;55.250;37.668;2023-02-15T04:31:00;3.83;;;1.53;;
45368;SDS011;51342;55.250;37.668;2023-02-15T04:33:32;5.93;;;2.20;;
45368;SDS011;51342;55.250;37.668;2023-02-15T04:36:05;3.33;;;1.53;;
45368;SDS011;51342;55.250;37.668;2023-02-15T04:38:36;5.67;;;1.40;;
45368;SDS011;51342;55.250;37.668;2023-02-15T04:41:08;5.20;;;1.83;;
45368;SDS011;51342;55.250;37.668;2023-02-15T04:43:44;4.70;;;1.50;;
45368;SDS011;51342;55.250;37.668;2023-02-15T04:46:15;5.40;;;1.37;;
45368;SDS011;51342;55.250;37.668;2023-02-15T04:48:47;6.03;;;1.37;;
45368;SDS011;51342;55.250;37.668;2023-02-15T04:51:20;5.30;;;1.30;;
45368;SDS011;51342;55.250;37.668;2023-02-15T04:53:54;4.57;;;1.37;;
45368;SDS011;51342;55.250;37.668;2023-02-15T04:56:26;6.87;;;1.90;;
45368;SDS011;51342;55.250;37.668;2023-02-15T04:58:58;4.83;;;1.60;;
45368;SDS011;51342;55.250;37.668;2023-02-15T05:01:35;6.00;;;2.77;;
45368;SDS011;51342;55.250;37.668;2023-02-15T05:04:14;4.43;;;1.47;;
45368;SDS011;51342;55.250;37.668;2023-02-15T05:06:45;6.97;;;2.20;;
45368;SDS011;51342;55.250;37.668;2023-02-15T05:09:17;5.87;;;2.87;;
45368;SDS011;51342;55.250;37.668;2023-02-15T05:11:48;4.77;;;1.80;;
45368;SDS011;51342;55.250;37.668;2023-02-15T05:14:23;3.67;;;1.47;;
45368;SDS011;51342;55.250;37.668;2023-02-15T05:16:57;5.20;;;1.93;;
45368;SDS011;51342;55.250;37.668;2023-02-15T05:19:32;4.43;;;1.30;;
45368;SDS011;51342;55.250;37.668;2023-02-15T05:22:04;2.60;;;1.37;;
45368;SDS011;51342;55.250;37.668;2023-02-15T05:24:37;4.17;;;1.30;;
45368;SDS011;51342;55.250;37.668;2023-02-15T05:27:27;2.83;;;1.30;;
45368;SDS011;51342;55.250;37.668;2023-02-15T05:30:18;5.77;;;1.90;;
45368;SDS011;51342;55.250;37.668;2023-02-15T05:32:50;5.53;;;1.83;;
45368;SDS011;51342;55.250;37.668;2023-02-15T05:35:24;6.77;;;1.70;;
45368;SDS011;51342;55.250;37.668;2023-02-15T05:37:55;3.97;;;1.73;;
45368;SDS011;51342;55.250;37.668;2023-02-15T05:40:30;5.93;;;1.90;;
45368;SDS011;51342;55.250;37.668;2023-02-15T05:43:06;6.60;;;1.45;;
45368;SDS011;51342;55.250;37.668;2023-02-15T05:45:37;7.00;;;2.23;;
45368;SDS011;51342;55.250;37.668;2023-02-15T05:48:10;7.07;;;1.63;;
45368;SDS011;51342;55.250;37.668;2023-02-15T05:50:43;5.40;;;1.90;;
45368;SDS011;51342;55.250;37.668;2023-02-15T05:53:21;6.87;;;2.27;;
45368;SDS011;51342;55.250;37.668;2023-02-15T05:56:00;4.13;;;1.50;;
45368;SDS011;51342;55.250;37.668;2023-02-15T05:58:35;5.63;;;1.83;;
45368;SDS011;51342;55.250;37.668;2023-02-15T06:01:16;4.60;;;1.63;;
45368;SDS011;51342;55.250;37.668;2023-02-15T06:03:57;6.47;;;1.70;;
45368;SDS011;51342;55.250;37.668;2023-02-15T06:06:33;4.20;;;1.67;;
45368;SDS011;51342;55.250;37.668;2023-02-15T06:09:07;2.77;;;1.40;;
45368;SDS011;51342;55.250;37.668;2023-02-15T06:11:44;4.43;;;1.90;;
45368;SDS011;51342;55.250;37.668;2023-02-15T06:14:17;6.83;;;2.97;;
45368;SDS011;51342;55.250;37.668;2023-02-15T06:16:49;6.37;;;1.90;;
45368;SDS011;51342;55.250;37.668;2023-02-15T06:19:23;6.30;;;1.60;;
45368;SDS011;51342;55.250;37.668;2023-02-15T06:21:55;7.20;;;1.70;;
45368;SDS011;51342;55.250;37.668;2023-02-15T06:24:28;5.50;;;1.97;;
45368;SDS011;51342;55.250;37.668;2023-02-15T06:26:59;3.97;;;1.70;;
45368;SDS011;51342;55.250;37.668;2023-02-15T06:29:32;4.13;;;1.70;;
45368;SDS011;51342;55.250;37.668;2023-02-15T06:32:04;3.40;;;1.30;;
45368;SDS011;51342;55.250;37.668;2023-02-15T06:34:36;5.43;;;1.90;;
45368;SDS011;51342;55.250;37.668;2023-02-15T06:37:12;5.57;;;1.60;;
45368;SDS011;51342;55.250;37.668;2023-02-15T06:39:44;6.53;;;1.90;;
45368;SDS011;51342;55.250;37.668;2023-02-15T06:42:15;5.47;;;1.80;;
45368;SDS011;51342;55.250;37.668;2023-02-15T06:44:49;5.17;;;1.80;;
45368;SDS011;51342;55.250;37.668;2023-02-15T06:47:21;5.33;;;2.00;;
45368;SDS011;51342;55.250;37.668;2023-02-15T06:49:53;4.67;;;1.83;;
45368;SDS011;51342;55.250;37.668;2023-02-15T06:52:25;4.93;;;2.10;;
45368;SDS011;51342;55.250;37.668;2023-02-15T06:54:57;5.13;;;1.90;;
45368;SDS011;51342;55.250;37.668;2023-02-15T06:57:29;5.33;;;1.63;;
45368;SDS011;51342;55.250;37.668;2023-02-15T07:00:07;6.80;;;2.60;;
45368;SDS011;51342;55.250;37.668;2023-02-15T07:02:45;5.67;;;1.90;;
45368;SDS011;51342;55.250;37.668;2023-02-15T07:05:16;6.23;;;2.13;;
45368;SDS011;51342;55.250;37.668;2023-02-15T07:07:57;6.03;;;2.17;;
45368;SDS011;51342;55.250;37.668;2023-02-15T07:10:32;4.80;;;2.27;;
45368;SDS011;51342;55.250;37.668;2023-02-15T07:13:04;6.03;;;2.30;;
45368;SDS011;51342;55.250;37.668;2023-02-15T07:15:36;5.37;;;1.87;;
45368;SDS011;51342;55.250;37.668;2023-02-15T07:18:07;6.10;;;2.20;;
45368;SDS011;51342;55.250;37.668;2023-02-15T07:20:45;6.63;;;2.43;;
45368;SDS011;51342;55.250;37.668;2023-02-15T07:23:24;4.00;;;2.10;;
45368;SDS011;51342;55.250;37.668;2023-02-15T07:25:59;5.63;;;2.17;;
45368;SDS011;51342;55.250;37.668;2023-02-15T07:28:44;5.00;;;2.67;;
45368;SDS011;51342;55.250;37.668;2023-02-15T07:31:24;5.43;;;1.90;;
45368;SDS011;51342;55.250;37.668;2023-02-15T07:33:56;7.13;;;2.30;;
45368;SDS011;51342;55.250;37.668;2023-02-15T07:36:31;7.60;;;2.73;;
45368;SDS011;51342;55.250;37.668;2023-02-15T07:39:03;6.97;;;2.77;;
45368;SDS011;51342;55.250;37.668;2023-02-15T07:41:39;6.80;;;2.60;;
45368;SDS011;51342;55.250;37.668;2023-02-15T07:44:16;7.80;;;2.70;;
45368;SDS011;51342;55.250;37.668;2023-02-15T07:46:47;8.60;;;2.80;;
45368;SDS011;51342;55.250;37.668;2023-02-15T07:49:23;7.53;;;3.40;;
45368;SDS011;51342;55.250;37.668;2023-02-15T07:51:55;6.47;;;2.47;;
45368;SDS011;51342;55.250;37.668;2023-02-15T07:54:28;6.30;;;2.73;;
45368;SDS011;51342;55.250;37.668;2023-02-15T07:57:01;7.23;;;2.73;;
45368;SDS011;51342;55.250;37.668;2023-02-15T07:59:33;11.53;;;2.97;;
45368;SDS011;51342;55.250;37.668;2023-02-15T08:02:09;8.63;;;3.80;;
45368;SDS011;51342;55.250;37.668;2023-02-15T08:04:41;8.68;;;3.13;;
45368;SDS011;51342;55.250;37.668;2023-02-15T08:07:18;9.27;;;3.10;;
45368;SDS011;51342;55.250;37.668;2023-02-15T08:09:50;9.13;;;3.10;;
45368;SDS011;51342;55.250;37.668;2023-02-15T08:12:21;6.93;;;2.90;;
45368;SDS011;51342;55.250;37.668;2023-02-15T08:14:54;7.60;;;3.60;;
45368;SDS011;51342;55.250;37.668;2023-02-15T08:17:26;6.80;;;3.10;;
45368;SDS011;51342;55.250;37.668;2023-02-15T08:19:59;8.63;;;3.30;;
45368;SDS011;51342;55.250;37.668;2023-02-15T08:22:30;6.53;;;3.50;;
45368;SDS011;51342;55.250;37.668;2023-02-15T08:25:14;8.63;;;3.17;;
45368;SDS011;51342;55.250;37.668;2023-02-15T08:27:51;7.10;;;3.20;;
45368;SDS011;51342;55.250;37.668;2023-02-15T08:30:29;6.27;;;2.90;;
45368;SDS011;51342;55.250;37.668;2023-02-15T08:33:02;7.73;;;3.07;;
45368;SDS011;51342;55.250;37.668;2023-02-15T08:35:34;7.23;;;2.77;;
45368;SDS011;51342;55.250;37.668;2023-02-15T08:38:12;7.88;;;2.50;;
45368;SDS011;51342;55.250;37.668;2023-02-15T08:40:48;7.43;;;2.43;;
45368;SDS011;51342;55.250;37.668;2023-02-15T08:43:19;7.83;;;2.67;;
45368;SDS011;51342;55.250;37.668;2023-02-15T08:45:51;6.23;;;3.03;;
45368;SDS011;51342;55.250;37.668;2023-02-15T08:48:22;6.50;;;2.80;;
45368;SDS011;51342;55.250;37.668;2023-02-15T08:50:55;6.17;;;3.10;;
45368;SDS011;51342;55.250;37.668;2023-02-15T08:53:28;6.57;;;2.43;;
45368;SDS011;51342;55.250;37.668;2023-02-15T08:56:00;7.40;;;2.50;;
45368;SDS011;51342;55.250;37.668;2023-02-15T08:58:32;6.30;;;3.30;;
45368;SDS011;51342;55.250;37.668;2023-02-15T09:03:49;6.07;;;2.60;;
45368;SDS011;51342;55.250;37.668;2023-02-15T09:06:27;5.73;;;2.40;;
45368;SDS011;51342;55.250;37.668;2023-02-15T09:09:01;5.00;;;2.30;;
45368;SDS011;51342;55.250;37.668;2023-02-15T09:11:44;4.90;;;2.40;;
45368;SDS011;51342;55.250;37.668;2023-02-15T09:14:19;4.00;;;2.13;;
45368;SDS011;51342;55.250;37.668;2023-02-15T09:16:55;4.17;;;1.60;;
45368;SDS011;51342;55.250;37.668;2023-02-15T09:19:26;3.70;;;2.10;;
45368;SDS011;51342;55.250;37.668;2023-02-15T09:21:57;6.73;;;2.13;;
45368;SDS011;51342;55.250;37.668;2023-02-15T09:24:31;5.87;;;2.20;;
45368;SDS011;51342;55.250;37.668;2023-02-15T09:27:04;9.73;;;2.60;;
45368;SDS011;51342;55.250;37.668;2023-02-15T09:29:35;6.20;;;2.40;;
45368;SDS011;51342;55.250;37.668;2023-02-15T09:32:07;6.00;;;2.10;;
45368;SDS011;51342;55.250;37.668;2023-02-15T09:34:45;5.72;;;2.42;;
45368;SDS011;51342;55.250;37.668;2023-02-15T09:37:17;3.60;;;1.70;;
45368;SDS011;51342;55.250;37.668;2023-02-15T09:39:49;4.50;;;2.10;;
45368;SDS011;51342;55.250;37.668;2023-02-15T09:48:39;3.33;;;1.77;;
45368;SDS011;51342;55.250;37.668;2023-02-15T10:06:27;5.03;;;2.40;;
45368;SDS011;51342;55.250;37.668;2023-02-15T10:18:41;5.50;;;2.50;;
45368;SDS011;51342;55.250;37.668;2023-02-15T10:27:19;5.57;;;2.20;;
45368;SDS011;51342;55.250;37.668;2023-02-15T10:30:09;4.38;;;2.00;;
45368;SDS011;51342;55.250;37.668;2023-02-15T10:32:51;5.27;;;2.37;;
45368;SDS011;51342;55.250;37.668;2023-02-15T10:38:37;4.20;;;1.83;;
45368;SDS011;51342;55.250;37.668;2023-02-15T10:56:11;4.10;;;1.90;;
45368;SDS011;51342;55.250;37.668;2023-02-15T11:08:02;4.93;;;2.10;;
45368;SDS011;51342;55.250;37.668;2023-02-15T11:10:58;3.90;;;1.90;;
45368;SDS011;51342;55.250;37.668;2023-02-15T11:13:34;6.30;;;2.37;;
45368;SDS011;51342;55.250;37.668;2023-02-15T11:16:34;4.55;;;1.73;;
45368;SDS011;51342;55.250;37.668;2023-02-15T11:19:21;5.07;;;2.13;;
45368;SDS011;51342;55.250;37.668;2023-02-15T11:22:30;4.80;;;1.97;;
45368;SDS011;51342;55.250;37.668;2023-02-15T11:25:14;6.03;;;3.43;;
45368;SDS011;51342;55.250;37.668;2023-02-15T11:27:57;5.00;;;1.90;;
45368;SDS011;51342;55.250;37.668;2023-02-15T11:30:39;6.07;;;2.27;;
45368;SDS011;51342;55.250;37.668;2023-02-15T11:33:22;5.13;;;1.60;;
45368;SDS011;51342;55.250;37.668;2023-02-15T11:36:08;3.60;;;1.50;;
45368;SDS011;51342;55.250;37.668;2023-02-15T11:38:51;2.70;;;1.80;;
45368;SDS011;51342;55.250;37.668;2023-02-15T11:41:29;5.00;;;1.50;;
45368;SDS011;51342;55.250;37.668;2023-02-15T11:47:11;5.53;;;1.70;;
45368;SDS011;51342;55.250;37.668;2023-02-15T11:49:44;6.60;;;1.93;;
45368;SDS011;51342;55.250;37.668;2023-02-15T11:52:17;5.20;;;2.10;;
45368;SDS011;51342;55.250;37.668;2023-02-15T11:54:52;4.73;;;1.83;;
45368;SDS011;51342;55.250;37.668;2023-02-15T11:57:39;5.43;;;1.93;;
45368;SDS011;51342;55.250;37.668;2023-02-15T12:00:31;4.23;;;1.90;;
45368;SDS011;51342;55.250;37.668;2023-02-15T12:03:12;4.30;;;1.83;;
45368;SDS011;51342;55.250;37.668;2023-02-15T12:05:50;4.27;;;2.13;;
45368;SDS011;51342;55.250;37.668;2023-02-15T12:08:39;5.37;;;2.30;;
45368;SDS011;51342;55.250;37.668;2023-02-15T12:11:22;4.63;;;2.43;;
45368;SDS011;51342;55.250;37.668;2023-02-15T12:14:04;4.03;;;2.13;;
45368;SDS011;51342;55.250;37.668;2023-02-15T12:16:46;4.07;;;1.87;;
45368;SDS011;51342;55.250;37.668;2023-02-15T12:19:31;4.37;;;1.70;;
45368;SDS011;51342;55.250;37.668;2023-02-15T12:22:18;3.73;;;2.40;;
45368;SDS011;51342;55.250;37.668;2023-02-15T12:25:00;6.17;;;2.13;;
45368;SDS011;51342;55.250;37.668;2023-02-15T12:27:40;2.90;;;1.70;;
45368;SDS011;51342;55.250;37.668;2023-02-15T12:30:22;5.53;;;2.87;;
45368;SDS011;51342;55.250;37.668;2023-02-15T12:36:29;7.93;;;3.20;;
45368;SDS011;51342;55.250;37.668;2023-02-15T12:41:55;9.47;;;6.23;;
45368;SDS011;51342;55.250;37.668;2023-02-15T12:47:31;3.93;;;2.60;;
45368;SDS011;51342;55.250;37.668;2023-02-15T12:50:23;6.37;;;2.03;;
45368;SDS011;51342;55.250;37.668;2023-02-15T12:53:06;4.03;;;2.03;;
45368;SDS011;51342;55.250;37.668;2023-02-15T12:56:03;6.10;;;2.90;;
45368;SDS011;51342;55.250;37.668;2023-02-15T12:58:40;6.77;;;2.27;;
45368;SDS011;51342;55.250;37.668;2023-02-15T13:01:18;5.03;;;2.10;;
45368;SDS011;51342;55.250;37.668;2023-02-15T13:04:05;4.57;;;1.77;;
45368;SDS011;51342;55.250;37.668;2023-02-15T13:06:54;4.03;;;1.60;;
45368;SDS011;51342;55.250;37.668;2023-02-15T13:12:30;3.83;;;1.50;;
45368;SDS011;51342;55.250;37.668;2023-02-15T13:15:22;2.73;;;1.40;;
45368;SDS011;51342;55.250;37.668;2023-02-15T13:17:59;4.10;;;2.37;;
45368;SDS011;51342;55.250;37.668;2023-02-15T13:20:41;4.20;;;1.80;;
45368;SDS011;51342;55.250;37.668;2023-02-15T13:23:33;3.43;;;3.10;;
45368;SDS011;51342;55.250;37.668;2023-02-15T13:26:09;5.47;;;1.80;;
45368;SDS011;51342;55.250;37.668;2023-02-15T13:28:46;2.33;;;1.60;;
45368;SDS011;51342;55.250;37.668;2023-02-15T13:31:22;2.60;;;1.60;;
45368;SDS011;51342;55.250;37.668;2023-02-15T13:34:33;5.63;;;3.13;;
45368;SDS011;51342;55.250;37.668;2023-02-15T13:43:00;6.63;;;4.50;;
45368;SDS011;51342;55.250;37.668;2023-02-15T14:01:15;3.13;;;2.30;;
45368;SDS011;51342;55.250;37.668;2023-02-15T14:10:34;6.70;;;4.50;;
45368;SDS011;51342;55.250;37.668;2023-02-15T14:13:52;4.93;;;4.17;;
45368;SDS011;51342;55.250;37.668;2023-02-15T14:22:32;12.70;;;10.57;;
45368;SDS011;51342;55.250;37.668;2023-02-15T14:30:52;4.43;;;2.37;;
45368;SDS011;51342;55.250;37.668;2023-02-15T14:33:31;4.67;;;2.90;;
45368;SDS011;51342;55.250;37.668;2023-02-15T14:36:15;13.80;;;6.73;;
45368;SDS011;51342;55.250;37.668;2023-02-15T14:41:35;9.00;;;4.80;;
45368;SDS011;51342;55.250;37.668;2023-02-15T14:49:58;3.77;;;2.13;;
45368;SDS011;51342;55.250;37.668;2023-02-15T14:52:29;3.60;;;1.87;;
45368;SDS011;51342;55.250;37.668;2023-02-15T14:55:05;3.63;;;2.40;;
45368;SDS011;51342;55.250;37.668;2023-02-15T14:57:38;3.47;;;2.10;;
45368;SDS011;51342;55.250;37.668;2023-02-15T15:00:35;3.77;;;2.00;;
45368;SDS011;51342;55.250;37.668;2023-02-15T15:03:20;3.30;;;1.77;;
45368;SDS011;51342;55.250;37.668;2023-02-15T15:05:56;2.47;;;1.60;;
45368;SDS011;51342;55.250;37.668;2023-02-15T15:08:40;3.15;;;1.58;;
45368;SDS011;51342;55.250;37.668;2023-02-15T15:14:10;2.40;;;1.77;;
45368;SDS011;51342;55.250;37.668;2023-02-15T15:17:04;3.50;;;1.50;;
45368;SDS011;51342;55.250;37.668;2023-02-15T15:28:09;5.10;;;3.40;;
45368;SDS011;51342;55.250;37.668;2023-02-15T15:31:41;2.00;;;1.33;;
45368;SDS011;51342;55.250;37.668;2023-02-15T15:38:00;3.00;;;2.20;;
45368;SDS011;51342;55.250;37.668;2023-02-15T15:40:30;3.17;;;1.97;;
45368;SDS011;51342;55.250;37.668;2023-02-15T15:43:39;3.20;;;1.50;;
45368;SDS011;51342;55.250;37.668;2023-02-15T15:49:49;2.13;;;1.70;;
45368;SDS011;51342;55.250;37.668;2023-02-15T15:52:31;4.17;;;1.90;;
45368;SDS011;51342;55.250;37.668;2023-02-15T15:55:14;3.43;;;1.30;;
45368;SDS011;51342;55.250;37.668;2023-02-15T15:57:58;1.47;;;1.00;;
45368;SDS011;51342;55.250;37.668;2023-02-15T16:00:36;2.97;;;1.77;;
45368;SDS011;51342;55.250;37.668;2023-02-15T16:03:21;2.07;;;1.10;;
45368;SDS011;51342;55.250;37.668;2023-02-15T16:06:13;1.90;;;1.20;;
45368;SDS011;51342;55.250;37.668;2023-02-15T16:08:56;1.30;;;0.90;;
45368;SDS011;51342;55.250;37.668;2023-02-15T16:11:30;1.67;;;0.87;;
45368;SDS011;51342;55.250;37.668;2023-02-15T16:14:02;2.23;;;0.90;;
45368;SDS011;51342;55.250;37.668;2023-02-15T16:17:07;2.60;;;1.00;;
45368;SDS011;51342;55.250;37.668;2023-02-15T16:19:47;2.07;;;0.90;;
45368;SDS011;51342;55.250;37.668;2023-02-15T16:22:32;0.83;;;0.57;;
45368;SDS011;51342;55.250;37.668;2023-02-15T16:28:05;2.90;;;1.03;;
45368;SDS011;51342;55.250;37.668;2023-02-15T16:30:43;2.27;;;1.20;;
45368;SDS011;51342;55.250;37.668;2023-02-15T16:33:15;2.37;;;1.03;;
45368;SDS011;51342;55.250;37.668;2023-02-15T16:35:58;1.20;;;0.70;;
45368;SDS011;51342;55.250;37.668;2023-02-15T16:41:29;1.50;;;0.83;;
45368;SDS011;51342;55.250;37.668;2023-02-15T16:44:10;1.97;;;1.00;;
45368;SDS011;51342;55.250;37.668;2023-02-15T16:47:03;2.23;;;1.10;;
45368;SDS011;51342;55.250;37.668;2023-02-15T16:49:35;2.23;;;0.77;;
45368;SDS011;51342;55.250;37.668;2023-02-15T16:52:10;2.20;;;0.80;;
45368;SDS011;51342;55.250;37.668;2023-02-15T16:54:51;2.07;;;0.90;;
45368;SDS011;51342;55.250;37.668;2023-02-15T16:57:35;3.30;;;1.27;;
45368;SDS011;51342;55.250;37.668;2023-02-15T17:00:17;3.07;;;1.27;;
45368;SDS011;51342;55.250;37.668;2023-02-15T17:05:52;2.65;;;1.40;;
45368;SDS011;51342;55.250;37.668;2023-02-15T17:08:42;2.17;;;0.93;;
45368;SDS011;51342;55.250;37.668;2023-02-15T17:14:37;4.27;;;1.67;;
45368;SDS011;51342;55.250;37.668;2023-02-15T17:17:13;6.10;;;2.33;;
45368;SDS011;51342;55.250;37.668;2023-02-15T17:22:24;6.13;;;3.25;;
45368;SDS011;51342;55.250;37.668;2023-02-15T17:24:58;3.53;;;3.20;;
45368;SDS011;51342;55.250;37.668;2023-02-15T17:27:36;2.93;;;1.40;;
45368;SDS011;51342;55.250;37.668;2023-02-15T17:30:14;1.63;;;1.00;;
45368;SDS011;51342;55.250;37.668;2023-02-15T17:33:01;1.30;;;0.70;;
45368;SDS011;51342;55.250;37.668;2023-02-15T17:39:00;2.67;;;1.20;;
45368;SDS011;51342;55.250;37.668;2023-02-15T17:41:56;2.23;;;1.20;;
45368;SDS011;51342;55.250;37.668;2023-02-15T17:44:29;2.00;;;1.00;;
45368;SDS011;51342;55.250;37.668;2023-02-15T17:47:05;1.70;;;0.97;;
45368;SDS011;51342;55.250;37.668;2023-02-15T17:49:36;1.43;;;1.07;;
45368;SDS011;51342;55.250;37.668;2023-02-15T17:52:11;1.50;;;1.00;;
45368;SDS011;51342;55.250;37.668;2023-02-15T17:54:47;1.53;;;1.03;;
45368;SDS011;51342;55.250;37.668;2023-02-15T17:57:37;2.17;;;1.20;;
45368;SDS011;51342;55.250;37.668;2023-02-15T18:00:12;1.67;;;0.90;;
45368;SDS011;51342;55.250;37.668;2023-02-15T18:03:07;1.67;;;1.08;;
45368;SDS011;51342;55.250;37.668;2023-02-15T18:06:00;1.60;;;1.07;;
45368;SDS011;51342;55.250;37.668;2023-02-15T18:08:50;1.33;;;0.80;;
45368;SDS011;51342;55.250;37.668;2023-02-15T18:11:42;2.20;;;1.00;;
45368;SDS011;51342;55.250;37.668;2023-02-15T18:14:18;1.50;;;0.80;;
45368;SDS011;51342;55.250;37.668;2023-02-15T18:16:49;1.37;;;0.90;;
45368;SDS011;51342;55.250;37.668;2023-02-15T18:19:23;2.00;;;1.10;;
45368;SDS011;51342;55.250;37.668;2023-02-15T18:21:56;5.80;;;2.30;;
45368;SDS011;51342;55.250;37.668;2023-02-15T18:24:28;1.83;;;0.90;;
45368;SDS011;51342;55.250;37.668;2023-02-15T18:26:59;3.13;;;1.70;;
45368;SDS011;51342;55.250;37.668;2023-02-15T18:29:36;2.87;;;1.50;;
45368;SDS011;51342;55.250;37.668;2023-02-15T18:32:08;2.67;;;1.65;;
45368;SDS011;51342;55.250;37.668;2023-02-15T18:34:47;2.00;;;1.20;;
45368;SDS011;51342;55.250;37.668;2023-02-15T18:37:20;2.90;;;1.40;;
45368;SDS011;51342;55.250;37.668;2023-02-15T18:39:52;2.60;;;1.30;;
45368;SDS011;51342;55.250;37.668;2023-02-15T18:42:28;1.90;;;1.10;;
45368;SDS011;51342;55.250;37.668;2023-02-15T18:45:13;1.87;;;1.00;;
45368;SDS011;51342;55.250;37.668;2023-02-15T18:47:54;1.97;;;1.20;;
45368;SDS011;51342;55.250;37.668;2023-02-15T18:50:26;1.97;;;1.00;;
45368;SDS011;51342;55.250;37.668;2023-02-15T18:53:01;3.03;;;1.33;;
45368;SDS011;51342;55.250;37.668;2023-02-15T18:55:35;1.93;;;1.07;;